createdAt,value
2018-10-19T00:02:01.469Z,97891.77
2018-10-19T00:04:29.967Z,97884.89
2018-10-19T00:06:58.435Z,97889.60
2018-10-19T00:09:26.909Z,97890.48
2018-10-19T00:11:55.387Z,97889.20
2018-10-19T00:14:23.862Z,97896.44
2018-10-19T00:16:52.594Z,97899.00
2018-10-19T00:19:21.076Z,97893.38
2018-10-19T00:21:49.605Z,97898.16
2018-10-19T00:24:18.090Z,97896.81
2018-10-19T00:26:46.567Z,97899.43
2018-10-19T00:29:15.149Z,97904.94
2018-10-19T00:31:43.663Z,97908.38
2018-10-19T00:34:12.147Z,97894.71
2018-10-19T00:36:40.669Z,97894.27
2018-10-19T00:39:10.775Z,97890.42
2018-10-19T00:41:39.254Z,97894.71
2018-10-19T00:44:07.944Z,97889.60
2018-10-19T00:46:36.463Z,97895.11
2018-10-19T00:49:05.179Z,97890.42
2018-10-19T00:51:33.657Z,97888.72
2018-10-19T00:54:02.131Z,97885.77
2018-10-19T00:56:30.598Z,97885.77
2018-10-19T00:58:59.127Z,97885.72
2018-10-19T01:01:27.619Z,97887.88
2018-10-19T01:03:56.100Z,97890.42
2018-10-19T01:06:24.567Z,97887.05
2018-10-19T01:08:53.063Z,97882.77
2018-10-19T01:11:21.563Z,97886.65
2018-10-19T01:13:50.029Z,97881.94
2018-10-19T01:16:18.516Z,97884.55
2018-10-19T01:18:46.975Z,97886.70
2018-10-19T01:21:15.550Z,97890.99
2018-10-19T01:23:43.969Z,97885.42
2018-10-19T01:26:12.446Z,97883.72
2018-10-19T01:28:40.928Z,97885.88
2018-10-19T01:31:09.413Z,97879.89
2018-10-19T01:33:37.891Z,97877.82
2018-10-19T01:36:07.340Z,97878.22
2018-10-19T01:38:36.161Z,97874.78
2018-10-19T01:41:04.655Z,97880.38
2018-10-19T01:43:33.139Z,97877.33
2018-10-19T01:46:01.624Z,97876.94
2018-10-19T01:48:30.104Z,97854.68
2018-10-19T01:50:59.155Z,97881.22
2018-10-19T01:53:27.927Z,97879.55
2018-10-19T01:55:56.414Z,97881.65
2018-10-19T01:58:24.895Z,97885.48
2018-10-19T02:00:53.370Z,97890.59
2018-10-19T02:03:21.883Z,97894.43
2018-10-19T02:05:50.377Z,97887.16
2018-10-19T02:08:18.912Z,97885.88
2018-10-19T02:10:47.379Z,97887.61
2018-10-19T02:13:15.842Z,97891.88
2018-10-19T02:15:44.316Z,97894.83
2018-10-19T02:18:12.801Z,97895.66
2018-10-19T02:20:41.295Z,97899.55
2018-10-19T02:23:09.793Z,97895.70
2018-10-19T02:25:38.276Z,97894.43
2018-10-19T02:28:06.766Z,97895.70
2018-10-19T02:30:35.294Z,97893.55
2018-10-19T02:33:03.797Z,97893.55
2018-10-19T02:35:32.264Z,97897.78
2018-10-19T02:38:00.764Z,97891.81
2018-10-19T02:40:29.311Z,97896.98
2018-10-19T02:42:57.791Z,97896.50
2018-10-19T02:45:26.267Z,97891.39
2018-10-19T02:47:54.747Z,97890.54
2018-10-19T02:50:23.240Z,97894.77
2018-10-19T02:52:51.711Z,97895.16
2018-10-19T02:55:20.206Z,97890.48
2018-10-19T02:57:48.679Z,97892.21
2018-10-19T03:00:17.157Z,97891.33
2018-10-19T03:02:45.634Z,97887.92
2018-10-19T03:05:14.188Z,97895.98
2018-10-19T03:07:42.682Z,97890.42
2018-10-19T03:10:11.155Z,97895.59
2018-10-19T03:12:39.630Z,97889.20
2018-10-19T03:15:08.705Z,97882.33
2018-10-19T03:17:37.240Z,97887.44
2018-10-19T03:20:07.311Z,97886.65
2018-10-19T03:22:36.003Z,97888.72
2018-10-19T03:25:04.479Z,97887.92
2018-10-19T03:27:32.951Z,97887.92
2018-10-19T03:30:01.440Z,97889.20
2018-10-19T03:32:29.924Z,97890.48
2018-10-19T03:34:58.470Z,97893.89
2018-10-19T03:37:26.942Z,97890.48
2018-10-19T03:39:55.405Z,97887.05
2018-10-19T03:42:23.884Z,97884.95
2018-10-19T03:44:52.382Z,97889.20
2018-10-19T03:47:20.856Z,97884.09
2018-10-19T03:49:49.343Z,97894.71
2018-10-19T03:52:17.847Z,97886.16
2018-10-19T03:54:46.334Z,97899.43
2018-10-19T03:57:14.901Z,97896.44
2018-10-19T03:59:43.311Z,97902.83
2018-10-19T04:02:11.799Z,97903.31
2018-10-19T04:04:40.313Z,97905.81
2018-10-19T04:07:08.782Z,97904.11
2018-10-19T04:09:37.267Z,97904.53
2018-10-19T04:12:06.198Z,97905.81
2018-10-19T04:14:34.679Z,97898.94
2018-10-19T04:17:03.192Z,97901.98
2018-10-19T04:19:31.671Z,97902.77
2018-10-19T04:22:00.144Z,97902.77
2018-10-19T04:24:28.631Z,97899.83
2018-10-19T04:26:57.106Z,97904.53
2018-10-19T04:29:25.593Z,97898.94
2018-10-19T04:31:54.101Z,97904.94
2018-10-19T04:34:22.580Z,97906.21
2018-10-19T04:36:51.073Z,97910.92
2018-10-19T04:39:19.551Z,97915.16
2018-10-19T04:41:48.243Z,97911.77
2018-10-19T04:44:16.637Z,97914.77
2018-10-19T04:46:45.111Z,97909.59
2018-10-19T04:49:13.597Z,97916.44
2018-10-19T04:51:42.070Z,97915.98
2018-10-19T04:54:10.543Z,97918.54
2018-10-19T04:56:39.064Z,97925.77
2018-10-19T04:59:07.633Z,97924.50
2018-10-19T05:01:36.104Z,97925.38
2018-10-19T05:04:04.600Z,97921.48
2018-10-19T05:06:33.123Z,97921.09
2018-10-19T05:09:01.648Z,97925.77
2018-10-19T05:11:30.130Z,97926.66
2018-10-19T05:13:58.639Z,97922.83
2018-10-19T05:16:27.106Z,97925.38
2018-10-19T05:18:55.595Z,97923.22
2018-10-19T05:21:24.070Z,97927.05
2018-10-19T05:23:52.568Z,97928.33
2018-10-19T05:26:21.095Z,97933.05
2018-10-19T05:28:49.586Z,97936.48
2018-10-19T05:31:18.120Z,97933.88
2018-10-19T05:33:46.597Z,97940.26
2018-10-19T05:36:15.144Z,97942.39
2018-10-19T05:38:43.634Z,97944.94
2018-10-19T05:41:12.155Z,97946.64
2018-10-19T05:43:40.638Z,97946.70
2018-10-19T05:46:09.137Z,97951.33
2018-10-19T05:48:37.726Z,97953.48
2018-10-19T05:51:06.199Z,97955.65
2018-10-19T05:53:34.712Z,97963.77
2018-10-19T05:56:03.249Z,97966.27
2018-10-19T05:58:31.941Z,97972.66
2018-10-19T06:01:00.416Z,97978.65
2018-10-19T06:03:28.895Z,97980.72
2018-10-19T06:05:57.370Z,97985.38
2018-10-19T06:08:25.843Z,97989.60
2018-10-19T06:10:54.374Z,97990.09
2018-10-19T06:13:22.831Z,97991.37
2018-10-19T06:15:51.326Z,97990.88
2018-10-19T06:18:19.816Z,97997.75
2018-10-19T06:20:48.295Z,97997.33
2018-10-19T06:23:16.834Z,97991.37
2018-10-19T06:25:45.283Z,97994.77
2018-10-19T06:28:13.767Z,98000.77
2018-10-19T06:30:42.251Z,98005.42
2018-10-19T06:33:10.743Z,98009.70
2018-10-19T06:35:39.234Z,98014.36
2018-10-19T06:38:07.958Z,98018.20
2018-10-19T06:40:36.512Z,98020.27
2018-10-19T06:43:04.934Z,98022.82
2018-10-19T06:45:33.431Z,98023.25
2018-10-19T06:48:01.928Z,98031.77
2018-10-19T06:50:30.418Z,98028.81
2018-10-19T06:52:58.899Z,98031.31
2018-10-19T06:55:27.400Z,98032.20
2018-10-19T06:57:55.885Z,98041.14
2018-10-19T07:00:24.363Z,98050.54
2018-10-19T07:02:52.868Z,98045.82
2018-10-19T07:05:21.347Z,98054.37
2018-10-19T07:07:49.880Z,98050.54
2018-10-19T07:10:18.323Z,98050.93
2018-10-19T07:12:46.840Z,98051.42
2018-10-19T07:15:15.308Z,98049.66
2018-10-19T07:17:43.814Z,98050.54
2018-10-19T07:20:12.439Z,98052.20
2018-10-19T07:22:40.929Z,98051.75
2018-10-19T07:25:09.732Z,98051.75
2018-10-19T07:27:38.216Z,98049.20
2018-10-19T07:30:07.074Z,98055.53
2018-10-19T07:32:35.568Z,98055.13
2018-10-19T07:35:04.077Z,98058.54
2018-10-19T07:37:32.573Z,98059.81
2018-10-19T07:40:01.041Z,98066.69
2018-10-19T07:42:29.520Z,98059.88
2018-10-19T07:44:58.020Z,98060.70
2018-10-19T07:47:26.514Z,98065.81
2018-10-19T07:49:55.032Z,98065.41
2018-10-19T07:52:23.513Z,98067.91
2018-10-19T07:54:52.189Z,98070.03
2018-10-19T07:57:20.659Z,98070.03
2018-10-19T07:59:49.129Z,98075.97
2018-10-19T08:02:17.715Z,98077.70
2018-10-19T08:04:46.199Z,98078.13
2018-10-19T08:07:14.691Z,98079.80
2018-10-19T08:09:43.154Z,98081.97
2018-10-19T08:12:11.651Z,98082.36
2018-10-19T08:14:40.123Z,98075.97
2018-10-19T08:17:08.670Z,98082.81
2018-10-19T08:19:37.119Z,98076.03
2018-10-19T08:22:05.642Z,98073.47
2018-10-19T08:24:34.128Z,98070.09
2018-10-19T08:27:02.611Z,98077.31
2018-10-19T08:29:31.074Z,98080.75
2018-10-19T08:31:59.606Z,98075.64
2018-10-19T08:34:28.068Z,98073.02
2018-10-19T08:36:56.624Z,98073.47
2018-10-19T08:39:25.119Z,98074.30
2018-10-19T08:41:53.596Z,98073.41
2018-10-19T08:44:22.706Z,98079.86
2018-10-19T08:46:51.219Z,98075.64
2018-10-19T08:49:19.678Z,98075.15
2018-10-19T08:51:48.155Z,98082.42
2018-10-19T08:54:16.630Z,98078.98
2018-10-19T08:56:45.110Z,98075.15
2018-10-19T08:59:13.669Z,98083.30
2018-10-19T09:01:42.116Z,98081.14
2018-10-19T09:04:10.644Z,98082.88
2018-10-19T09:06:39.095Z,98087.98
2018-10-19T09:09:09.971Z,98088.87
2018-10-19T09:11:38.805Z,98087.14
2018-10-19T09:14:18.539Z,98079.47
2018-10-19T09:16:47.444Z,98076.48
2018-10-19T09:19:15.953Z,98081.97
2018-10-19T09:21:44.467Z,98084.58
2018-10-19T09:24:13.279Z,98084.98
2018-10-19T09:26:42.875Z,98086.25
2018-10-19T09:29:11.742Z,98080.69
2018-10-19T09:31:40.175Z,98082.42
2018-10-19T09:34:08.702Z,98078.59
2018-10-19T09:36:37.294Z,98078.98
2018-10-19T09:39:08.887Z,98079.86
2018-10-19T09:41:37.307Z,98080.75
2018-10-19T09:44:05.808Z,98079.86
2018-10-19T09:46:34.566Z,98083.30
2018-10-19T09:49:03.088Z,98085.03
2018-10-19T09:51:31.533Z,98084.16
2018-10-19T09:54:00.009Z,98083.30
2018-10-19T09:56:28.503Z,98087.53
2018-10-19T09:58:57.851Z,98088.81
2018-10-19T10:01:28.670Z,98086.25
2018-10-19T10:03:57.162Z,98086.25
2018-10-19T10:06:25.630Z,98081.54
2018-10-19T10:08:54.122Z,98077.31
2018-10-19T10:11:22.603Z,98076.42
2018-10-19T10:13:51.396Z,98074.75
2018-10-19T10:16:20.191Z,98067.09
2018-10-19T10:18:48.670Z,98078.19
2018-10-19T10:21:17.295Z,98068.82
2018-10-19T10:23:45.763Z,98071.38
2018-10-19T10:26:14.731Z,98064.53
2018-10-19T10:28:43.276Z,98062.44
2018-10-19T10:31:11.764Z,98061.16
2018-10-19T10:33:40.249Z,98056.86
2018-10-19T10:36:08.736Z,98060.70
2018-10-19T10:38:37.216Z,98061.98
2018-10-19T10:41:05.798Z,98058.97
2018-10-19T10:43:34.276Z,98058.08
2018-10-19T10:46:02.808Z,98061.09
2018-10-19T10:48:31.279Z,98059.81
2018-10-19T10:50:59.769Z,98058.14
2018-10-19T10:53:28.256Z,98055.59
2018-10-19T10:55:56.733Z,98059.02
2018-10-19T10:58:25.214Z,98046.25
2018-10-19T11:00:53.750Z,98052.64
2018-10-19T11:03:22.216Z,98043.69
2018-10-19T11:05:50.683Z,98046.25
2018-10-19T11:08:19.155Z,98044.55
2018-10-19T11:10:47.728Z,98041.92
2018-10-19T11:13:16.204Z,98043.69
2018-10-19T11:15:44.682Z,98038.58
2018-10-19T11:18:13.167Z,98026.53
2018-10-19T11:20:41.651Z,98031.70
2018-10-19T11:23:10.124Z,98026.14
2018-10-19T11:25:38.613Z,98034.26
2018-10-19T11:28:07.174Z,98026.20
2018-10-19T11:30:35.622Z,98025.80
2018-10-19T11:33:04.106Z,98024.53
2018-10-19T11:35:32.612Z,98028.30
2018-10-19T11:38:01.180Z,98022.37
2018-10-19T11:40:34.003Z,98018.92
2018-10-19T11:43:02.537Z,98023.25
2018-10-19T11:45:32.264Z,98021.55
2018-10-19T11:48:00.788Z,98018.53
2018-10-19T11:50:29.428Z,98011.27
2018-10-19T11:52:57.927Z,98011.69
2018-10-19T11:55:26.407Z,98011.69
2018-10-19T11:57:54.916Z,98011.69
2018-10-19T12:00:23.462Z,98004.48
2018-10-19T12:02:51.942Z,97999.82
2018-10-19T12:05:20.478Z,97998.09
2018-10-19T12:07:48.949Z,97998.09
2018-10-19T12:10:17.470Z,97995.53
2018-10-19T12:12:45.924Z,97993.38
2018-10-19T12:15:15.699Z,97991.31
2018-10-19T12:17:44.771Z,97998.09
2018-10-19T12:20:15.603Z,97987.05
2018-10-19T12:22:44.124Z,97978.53
2018-10-19T12:25:13.604Z,97980.66
2018-10-19T12:27:42.386Z,97978.53
2018-10-19T12:30:11.571Z,97972.99
2018-10-19T12:32:40.367Z,97970.86
2018-10-19T12:35:10.922Z,97969.59
2018-10-19T12:37:39.431Z,97978.10
2018-10-19T12:40:08.793Z,97978.53
2018-10-19T12:42:37.775Z,97974.27
2018-10-19T12:45:11.283Z,97973.42
2018-10-19T12:47:41.702Z,97975.98
2018-10-19T12:50:10.187Z,97977.25
2018-10-19T12:52:38.679Z,97981.48
2018-10-19T12:55:08.647Z,97978.10
2018-10-19T12:57:37.168Z,97978.98
2018-10-19T13:00:06.776Z,97972.59
2018-10-19T13:02:35.268Z,97966.60
2018-10-19T13:05:03.738Z,97956.38
2018-10-19T13:07:32.219Z,97960.21
2018-10-19T13:10:00.790Z,97955.98
2018-10-19T13:12:29.194Z,97963.66
2018-10-19T13:14:57.714Z,97954.71
2018-10-19T13:17:26.221Z,97955.92
2018-10-19T13:19:54.721Z,97952.98
2018-10-19T13:22:23.212Z,97958.09
2018-10-19T13:24:51.697Z,97955.05
2018-10-19T13:27:20.242Z,97949.09
2018-10-19T13:29:48.727Z,97949.94
2018-10-19T13:32:17.237Z,97949.54
2018-10-19T13:34:45.716Z,97951.27
2018-10-19T13:37:14.193Z,97944.88
2018-10-19T13:39:42.668Z,97948.77
2018-10-19T13:42:11.158Z,97949.59
2018-10-19T13:44:39.984Z,97947.05
2018-10-19T13:47:08.519Z,97942.33
2018-10-19T13:49:36.971Z,97944.88
2018-10-19T13:52:05.566Z,97943.16
2018-10-19T13:54:34.054Z,97940.59
2018-10-19T13:57:02.600Z,97941.42
2018-10-19T13:59:31.045Z,97940.59
2018-10-19T14:01:59.522Z,97945.31
2018-10-19T14:04:27.993Z,97945.70
2018-10-19T14:06:56.521Z,97946.98
2018-10-19T14:09:24.987Z,97938.09
2018-10-19T14:11:53.476Z,97945.37
2018-10-19T14:14:21.957Z,97940.26
2018-10-19T14:16:50.591Z,97941.53
2018-10-19T14:19:19.191Z,97940.26
2018-10-19T14:21:47.586Z,97944.55
2018-10-19T14:24:16.063Z,97934.27
2018-10-19T14:26:44.680Z,97943.60
2018-10-19T14:29:13.149Z,97942.33
2018-10-19T14:31:41.613Z,97943.60
2018-10-19T14:34:10.096Z,97943.60
2018-10-19T14:36:38.583Z,97934.20
2018-10-19T14:39:07.379Z,97944.03
2018-10-19T14:41:35.835Z,97942.76
2018-10-19T14:44:04.338Z,97938.50
2018-10-19T14:46:32.825Z,97939.31
2018-10-19T14:49:01.338Z,97944.88
2018-10-19T14:51:29.867Z,97943.20
2018-10-19T14:53:58.370Z,97940.26
2018-10-19T14:56:26.844Z,97938.98
2018-10-19T14:58:55.343Z,97940.26
2018-10-19T15:01:23.835Z,97942.76
2018-10-19T15:03:52.816Z,97940.66
2018-10-19T15:06:21.291Z,97940.66
2018-10-19T15:08:49.776Z,97941.05
2018-10-19T15:11:18.547Z,97942.33
2018-10-19T15:13:46.785Z,97944.03
2018-10-19T15:16:15.269Z,97944.03
2018-10-19T15:18:43.750Z,97949.59
2018-10-19T15:21:12.285Z,97944.83
2018-10-19T15:23:40.732Z,97945.70
2018-10-19T15:26:09.225Z,97947.87
2018-10-19T15:28:37.765Z,97952.55
2018-10-19T15:31:06.417Z,97950.81
2018-10-19T15:33:34.896Z,97953.83
2018-10-19T15:36:03.449Z,97954.71
2018-10-19T15:38:31.891Z,97953.43
2018-10-19T15:41:00.394Z,97951.27
2018-10-19T15:43:28.899Z,97955.11
2018-10-19T15:45:57.366Z,97953.83
2018-10-19T15:48:25.843Z,97951.64
2018-10-19T15:50:54.372Z,97958.87
2018-10-19T15:53:22.843Z,97955.53
2018-10-19T15:55:51.342Z,97960.64
2018-10-19T15:58:19.836Z,97958.94
2018-10-19T16:00:49.329Z,97955.53
2018-10-19T16:03:17.811Z,97964.88
2018-10-19T16:05:46.294Z,97959.37
2018-10-19T16:08:14.786Z,97964.93
2018-10-19T16:10:43.273Z,97965.75
2018-10-19T16:13:11.765Z,97971.32
2018-10-19T16:15:40.300Z,97975.55
2018-10-19T16:18:08.826Z,97984.55
2018-10-19T16:20:37.283Z,97982.81
2018-10-19T16:23:06.150Z,97987.93
2018-10-19T16:25:34.735Z,97991.31
2018-10-19T16:28:03.262Z,97988.75
2018-10-19T16:30:31.777Z,97995.94
2018-10-19T16:33:00.300Z,97996.36
2018-10-19T16:35:28.788Z,98000.25
2018-10-19T16:37:57.267Z,97994.26
2018-10-19T16:40:25.757Z,98005.76
2018-10-19T16:42:54.256Z,98003.59
2018-10-19T16:45:22.726Z,98007.03
2018-10-19T16:47:51.216Z,98011.32
2018-10-19T16:50:19.726Z,98013.88
2018-10-19T16:52:48.239Z,98014.31
2018-10-19T16:55:16.714Z,98015.98
2018-10-19T16:57:45.188Z,98017.25
2018-10-19T17:00:13.739Z,98017.20
2018-10-19T17:02:42.179Z,98022.77
2018-10-19T17:05:10.752Z,98019.75
2018-10-19T17:07:39.175Z,98026.53
2018-10-19T17:10:08.246Z,98024.86
2018-10-19T17:12:36.764Z,98022.30
2018-10-19T17:15:05.407Z,98024.41
2018-10-19T17:17:33.954Z,98024.47
2018-10-19T17:20:02.435Z,98029.97
2018-10-19T17:22:30.924Z,98030.86
2018-10-19T17:24:59.407Z,98032.98
2018-10-19T17:27:27.882Z,98034.75
2018-10-19T17:29:56.357Z,98037.25
2018-10-19T17:32:24.847Z,98041.92
2018-10-19T17:34:53.329Z,98037.64
2018-10-19T17:37:21.834Z,98040.20
2018-10-19T17:39:50.898Z,98043.14
2018-10-19T17:42:19.412Z,98049.96
2018-10-19T17:44:47.915Z,98051.23
2018-10-19T17:47:16.427Z,98053.80
2018-10-19T17:49:44.930Z,98054.58
2018-10-19T17:52:13.406Z,98051.63
2018-10-19T17:54:41.894Z,98059.75
2018-10-19T17:57:10.486Z,98062.73
2018-10-19T17:59:38.943Z,98063.59
2018-10-19T18:02:07.424Z,98064.47
2018-10-19T18:04:35.946Z,98060.19
2018-10-19T18:07:04.407Z,98063.59
2018-10-19T18:09:32.979Z,98066.14
2018-10-19T18:12:01.419Z,98064.02
2018-10-19T18:14:29.906Z,98066.08
2018-10-19T18:16:58.453Z,98068.24
2018-10-19T18:19:26.892Z,98075.45
2018-10-19T18:21:55.523Z,98076.73
2018-10-19T18:24:26.917Z,97577.61
2018-10-19T18:26:55.432Z,98080.56
2018-10-19T18:29:23.883Z,98081.35
2018-10-19T18:31:52.395Z,98085.67
2018-10-19T18:34:21.220Z,98092.91
2018-10-19T18:36:49.691Z,98100.58
2018-10-19T18:39:18.164Z,98095.47
2018-10-19T18:41:46.631Z,98092.06
2018-10-19T18:44:15.189Z,98092.91
2018-10-19T18:46:43.611Z,98089.97
2018-10-19T18:49:12.084Z,98094.68
2018-10-19T18:51:40.571Z,98099.36
2018-10-19T18:54:09.055Z,98098.09
2018-10-19T18:56:37.532Z,98098.97
2018-10-19T18:59:06.110Z,98099.85
2018-10-19T19:01:34.518Z,98098.64
2018-10-19T19:04:03.003Z,98102.86
2018-10-19T19:06:31.458Z,98109.31
2018-10-19T19:08:59.949Z,98109.71
2018-10-19T19:11:28.426Z,98113.54
2018-10-19T19:13:56.960Z,98115.70
2018-10-19T19:16:30.619Z,98121.27
2018-10-19T19:18:59.098Z,98118.72
2018-10-19T19:21:27.597Z,98121.27
2018-10-19T19:24:01.419Z,98125.59
2018-10-19T19:26:29.899Z,98129.42
2018-10-19T19:28:58.711Z,98126.87
2018-10-19T19:31:27.171Z,98128.94
2018-10-19T19:34:00.887Z,98133.20
2018-10-19T19:36:29.376Z,98137.88
2018-10-19T19:38:57.862Z,98126.37
2018-10-19T19:41:31.666Z,98131.49
2018-10-19T19:44:00.196Z,98135.33
2018-10-19T19:46:28.738Z,98132.77
2018-10-19T19:49:02.596Z,98139.16
2018-10-19T19:51:31.054Z,98134.48
2018-10-19T19:53:59.540Z,98134.93
2018-10-19T19:56:28.014Z,98137.88
2018-10-19T19:58:56.499Z,98145.61
2018-10-19T20:01:24.992Z,98137.09
2018-10-19T20:03:53.499Z,98143.05
2018-10-19T20:06:22.088Z,98139.65
2018-10-19T20:08:50.505Z,98149.45
2018-10-19T20:11:18.971Z,98144.33
2018-10-19T20:13:47.487Z,98147.77
2018-10-19T20:16:15.966Z,98147.31
2018-10-19T20:18:44.520Z,98149.37
2018-10-19T20:21:13.035Z,98154.92
2018-10-19T20:23:41.507Z,98153.22
2018-10-19T20:26:10.128Z,98157.88
2018-10-19T20:28:38.480Z,98165.99
2018-10-19T20:31:06.963Z,98164.26
2018-10-19T20:33:35.443Z,98170.25
2018-10-19T20:36:03.921Z,98166.81
2018-10-19T20:38:32.408Z,98172.32
2018-10-19T20:41:01.002Z,98174.94
2018-10-19T20:43:29.452Z,98178.77
2018-10-19T20:45:57.933Z,98175.83
2018-10-19T20:48:26.406Z,98181.00
2018-10-19T20:50:54.883Z,98182.21
2018-10-19T20:53:23.363Z,98184.70
2018-10-19T20:55:51.890Z,98193.25
2018-10-19T20:58:20.324Z,98185.09
2018-10-19T21:00:48.888Z,98189.42
2018-10-19T21:03:17.303Z,98190.63
2018-10-19T21:05:45.796Z,98189.36
2018-10-19T21:08:14.327Z,98188.86
2018-10-19T21:10:42.976Z,98191.03
2018-10-19T21:13:11.450Z,98182.91
2018-10-19T21:15:39.940Z,98182.91
2018-10-19T21:18:08.420Z,98188.08
2018-10-19T21:20:36.929Z,98182.48
2018-10-19T21:23:05.489Z,98186.80
2018-10-19T21:25:33.932Z,98188.47
2018-10-19T21:28:02.427Z,98179.86
2018-10-19T21:30:30.912Z,98181.63
2018-10-19T21:32:59.373Z,98184.58
2018-10-19T21:35:27.852Z,98184.58
2018-10-19T21:37:56.409Z,98186.25
2018-10-19T21:40:24.849Z,98184.12
2018-10-19T21:42:53.323Z,98188.34
2018-10-19T21:45:21.805Z,98188.41
2018-10-19T21:47:50.296Z,98188.80
2018-10-19T21:50:22.012Z,98185.85
2018-10-19T21:52:51.747Z,98195.62
2018-10-19T21:55:20.266Z,98200.80
2018-10-19T21:57:48.723Z,98204.63
2018-10-19T22:00:17.292Z,98207.58
2018-10-19T22:02:45.767Z,98211.80
2018-10-19T22:05:14.290Z,98216.52
2018-10-19T22:07:42.822Z,98215.57
2018-10-19T22:10:11.240Z,98214.36
2018-10-19T22:12:39.743Z,98218.62
2018-10-19T22:15:08.811Z,98215.18
2018-10-19T22:17:37.360Z,98221.17
2018-10-19T22:20:05.967Z,98222.84
2018-10-19T22:22:34.460Z,98226.67
2018-10-19T22:25:03.181Z,98227.06
2018-10-19T22:27:31.645Z,98231.39
2018-10-19T22:30:00.141Z,98231.79
2018-10-19T22:32:28.635Z,98223.73
2018-10-19T22:34:57.136Z,98230.97
2018-10-19T22:37:25.610Z,98229.23
2018-10-19T22:39:54.103Z,98231.79
2018-10-19T22:42:22.571Z,98233.45
2018-10-19T22:44:51.420Z,98232.61
2018-10-19T22:47:19.894Z,98235.55
2018-10-19T22:49:48.381Z,98249.61
2018-10-19T22:52:16.856Z,98238.11
2018-10-19T22:54:45.322Z,98244.44
2018-10-19T22:57:13.837Z,98242.41
2018-10-19T22:59:42.323Z,98240.66
2018-10-19T23:02:10.804Z,98240.66
2018-10-19T23:04:39.278Z,98240.66
2018-10-19T23:07:07.803Z,98244.89
2018-10-19T23:09:36.268Z,98242.83
2018-10-19T23:12:04.755Z,98242.41
2018-10-19T23:14:33.247Z,98249.22
2018-10-19T23:17:01.781Z,98245.38
2018-10-19T23:19:30.268Z,98251.77
2018-10-19T23:21:58.726Z,98253.05
2018-10-19T23:24:27.219Z,98246.59
2018-10-19T23:26:55.723Z,98241.48
2018-10-19T23:29:24.202Z,98245.31
2018-10-19T23:31:52.689Z,98244.04
2018-10-19T23:34:21.222Z,98249.55
2018-10-19T23:36:49.713Z,98253.38
2018-10-19T23:39:18.200Z,98243.16
2018-10-19T23:41:46.703Z,98250.00
2018-10-19T23:44:15.200Z,98245.31
2018-10-19T23:46:43.703Z,98241.05
2018-10-19T23:49:12.224Z,98242.34
2018-10-19T23:51:40.696Z,98237.66
2018-10-19T23:54:09.166Z,98251.70
2018-10-19T23:56:37.647Z,98245.31
2018-10-19T23:59:06.278Z,98250.43
